Vinings, Georgia
Current Conditions -  °F | °C
As of 2:58 PM on Wednesday 26 Nov 2014 (Local Time) from KMGE Reporting Station
Few Clouds Few Clouds  
Wind Chill: 13°   Ceiling: Unl
Heat Index: 13°   Visibility: 10mi
Dew Point: -6°   Wind: 13mph
Humidity: 27%   Direction: 280°W
Pressure: 30.06"   Gusts: NA
Location:  33.87°N, 84.47°W
Report Text: KMGE 261958Z 28011KT 10SM FEW100 FEW250 13/M06 A3006 RMK AO2A SLP180 T01291060 $
Loading
Personal Weather Stations






























Interactive Weather Map New forecast layout! Learn more

10-Day Weather Forecast

Advertisements
Track Severe Weather on mobile